Eastern Iowa Airport (CID)


Airport Diagram
Current Weather/Forecast (VFR Conditions)
METAR KCID 252352Z 28011KT 9SM BKN050 M03/M04 A2996 RMK AO2 SLP155 T10281044 10000 21033 51013
TAF KCID 252259Z 2523/2618 29013KT P6SM SCT050 FM260600 28008KT P6SM OVC018 FM261300 27004KT 4SM BR SCT007 OVC010

All Charts
General
Chart Name Download
AIRPORT DIAGRAM
TAKEOFF MINIMUMS
ALTERNATE MINIMUMS
HOT SPOT

Approaches
Chart Name Download
ILS OR LOC RWY 09
ILS OR LOC RWY 27
RNAV (GPS) RWY 09
RNAV (GPS) RWY 13
RNAV (GPS) RWY 27
RNAV (GPS) RWY 31